sensor_id;sensor_type;location;lat;lon;timestamp;temperature;humidity
61591;DHT22;71994;52.410;-1.966;2024-01-30T00:02:44;17.30;56.00
61591;DHT22;71994;52.410;-1.966;2024-01-30T00:05:51;17.30;56.00
61591;DHT22;71994;52.410;-1.966;2024-01-30T00:08:57;17.20;56.10
61591;DHT22;71994;52.410;-1.966;2024-01-30T00:12:04;17.20;56.00
61591;DHT22;71994;52.410;-1.966;2024-01-30T00:15:11;17.20;56.00
61591;DHT22;71994;52.410;-1.966;2024-01-30T00:18:21;17.20;56.00
61591;DHT22;71994;52.410;-1.966;2024-01-30T00:21:27;17.10;56.00
61591;DHT22;71994;52.410;-1.966;2024-01-30T00:24:33;17.10;56.00
61591;DHT22;71994;52.410;-1.966;2024-01-30T00:27:39;17.10;56.00
61591;DHT22;71994;52.410;-1.966;2024-01-30T00:30:45;17.10;56.00
61591;DHT22;71994;52.410;-1.966;2024-01-30T00:33:55;17.10;56.00
61591;DHT22;71994;52.410;-1.966;2024-01-30T00:37:01;17.10;56.10
61591;DHT22;71994;52.410;-1.966;2024-01-30T00:40:08;17.10;56.00
61591;DHT22;71994;52.410;-1.966;2024-01-30T00:43:18;17.10;56.00
61591;DHT22;71994;52.410;-1.966;2024-01-30T00:46:25;17.10;55.90
61591;DHT22;71994;52.410;-1.966;2024-01-30T00:49:34;17.10;56.00
61591;DHT22;71994;52.410;-1.966;2024-01-30T00:52:40;17.10;55.90
61591;DHT22;71994;52.410;-1.966;2024-01-30T00:55:48;17.10;55.90
61591;DHT22;71994;52.410;-1.966;2024-01-30T00:58:54;17.10;55.90
61591;DHT22;71994;52.410;-1.966;2024-01-30T01:02:00;17.00;55.90
61591;DHT22;71994;52.410;-1.966;2024-01-30T01:05:10;17.00;55.90
61591;DHT22;71994;52.410;-1.966;2024-01-30T01:08:16;17.00;55.90
61591;DHT22;71994;52.410;-1.966;2024-01-30T01:11:23;17.00;55.90
61591;DHT22;71994;52.410;-1.966;2024-01-30T01:14:29;17.00;55.90
61591;DHT22;71994;52.410;-1.966;2024-01-30T01:17:36;17.00;55.90
61591;DHT22;71994;52.410;-1.966;2024-01-30T01:20:45;17.00;55.90
61591;DHT22;71994;52.410;-1.966;2024-01-30T01:23:51;17.00;55.90
61591;DHT22;71994;52.410;-1.966;2024-01-30T01:26:58;16.90;55.80
61591;DHT22;71994;52.410;-1.966;2024-01-30T01:30:05;17.00;55.90
61591;DHT22;71994;52.410;-1.966;2024-01-30T01:33:12;16.90;55.90
61591;DHT22;71994;52.410;-1.966;2024-01-30T01:36:22;16.90;55.80
61591;DHT22;71994;52.410;-1.966;2024-01-30T01:39:28;16.90;55.80
61591;DHT22;71994;52.410;-1.966;2024-01-30T01:42:34;16.90;55.90
61591;DHT22;71994;52.410;-1.966;2024-01-30T01:45:41;16.90;55.90
61591;DHT22;71994;52.410;-1.966;2024-01-30T01:48:47;16.90;55.90
61591;DHT22;71994;52.410;-1.966;2024-01-30T01:51:57;16.90;55.90
61591;DHT22;71994;52.410;-1.966;2024-01-30T01:55:06;16.80;55.90
61591;DHT22;71994;52.410;-1.966;2024-01-30T01:58:13;16.90;55.90
61591;DHT22;71994;52.410;-1.966;2024-01-30T02:01:21;16.90;55.80
61591;DHT22;71994;52.410;-1.966;2024-01-30T02:04:27;16.90;55.80
61591;DHT22;71994;52.410;-1.966;2024-01-30T02:07:37;16.80;55.80
61591;DHT22;71994;52.410;-1.966;2024-01-30T02:10:43;16.80;55.80
61591;DHT22;71994;52.410;-1.966;2024-01-30T02:13:49;16.80;55.80
61591;DHT22;71994;52.410;-1.966;2024-01-30T02:16:56;16.80;55.80
61591;DHT22;71994;52.410;-1.966;2024-01-30T02:20:02;16.80;55.80
61591;DHT22;71994;52.410;-1.966;2024-01-30T02:23:12;16.80;55.70
61591;DHT22;71994;52.410;-1.966;2024-01-30T02:26:21;16.80;55.70
61591;DHT22;71994;52.410;-1.966;2024-01-30T02:29:27;16.80;55.80
61591;DHT22;71994;52.410;-1.966;2024-01-30T02:32:34;16.80;55.70
61591;DHT22;71994;52.410;-1.966;2024-01-30T02:35:40;16.80;55.70
61591;DHT22;71994;52.410;-1.966;2024-01-30T02:38:49;16.80;55.60
61591;DHT22;71994;52.410;-1.966;2024-01-30T02:41:55;16.80;55.70
61591;DHT22;71994;52.410;-1.966;2024-01-30T02:45:02;16.80;55.70
61591;DHT22;71994;52.410;-1.966;2024-01-30T02:48:08;16.70;55.70
61591;DHT22;71994;52.410;-1.966;2024-01-30T02:51:21;16.70;55.70
61591;DHT22;71994;52.410;-1.966;2024-01-30T02:54:30;16.80;55.60
61591;DHT22;71994;52.410;-1.966;2024-01-30T02:57:36;16.70;55.50
61591;DHT22;71994;52.410;-1.966;2024-01-30T03:00:42;16.70;55.50
61591;DHT22;71994;52.410;-1.966;2024-01-30T03:03:49;16.70;55.40
61591;DHT22;71994;52.410;-1.966;2024-01-30T03:06:55;16.70;55.30
61591;DHT22;71994;52.410;-1.966;2024-01-30T03:10:05;16.70;55.40
61591;DHT22;71994;52.410;-1.966;2024-01-30T03:13:11;16.80;55.30
61591;DHT22;71994;52.410;-1.966;2024-01-30T03:16:18;16.70;55.40
61591;DHT22;71994;52.410;-1.966;2024-01-30T03:19:24;16.70;55.40
61591;DHT22;71994;52.410;-1.966;2024-01-30T03:22:30;16.70;55.30
61591;DHT22;71994;52.410;-1.966;2024-01-30T03:25:39;16.70;55.30
61591;DHT22;71994;52.410;-1.966;2024-01-30T03:28:46;16.70;55.20
61591;DHT22;71994;52.410;-1.966;2024-01-30T03:31:52;16.70;55.30
61591;DHT22;71994;52.410;-1.966;2024-01-30T03:34:58;16.70;55.20
61591;DHT22;71994;52.410;-1.966;2024-01-30T03:38:04;16.60;55.20
61591;DHT22;71994;52.410;-1.966;2024-01-30T03:41:15;16.60;55.20
61591;DHT22;71994;52.410;-1.966;2024-01-30T03:44:21;16.60;55.20
61591;DHT22;71994;52.410;-1.966;2024-01-30T03:47:27;16.60;55.10
61591;DHT22;71994;52.410;-1.966;2024-01-30T03:50:34;16.60;55.10
61591;DHT22;71994;52.410;-1.966;2024-01-30T03:53:40;16.60;55.10
61591;DHT22;71994;52.410;-1.966;2024-01-30T03:56:49;16.60;55.10
61591;DHT22;71994;52.410;-1.966;2024-01-30T03:59:55;16.60;55.20
61591;DHT22;71994;52.410;-1.966;2024-01-30T04:03:04;16.60;55.10
61591;DHT22;71994;52.410;-1.966;2024-01-30T04:06:10;16.60;55.20
61591;DHT22;71994;52.410;-1.966;2024-01-30T04:09:17;16.60;55.10
61591;DHT22;71994;52.410;-1.966;2024-01-30T04:12:26;16.60;55.00
61591;DHT22;71994;52.410;-1.966;2024-01-30T04:15:32;16.60;55.00
61591;DHT22;71994;52.410;-1.966;2024-01-30T04:18:39;16.60;54.90
61591;DHT22;71994;52.410;-1.966;2024-01-30T04:21:45;16.60;54.80
61591;DHT22;71994;52.410;-1.966;2024-01-30T04:24:54;16.60;54.90
61591;DHT22;71994;52.410;-1.966;2024-01-30T04:28:06;16.60;54.80
61591;DHT22;71994;52.410;-1.966;2024-01-30T04:31:12;16.60;54.70
61591;DHT22;71994;52.410;-1.966;2024-01-30T04:34:19;16.60;54.70
61591;DHT22;71994;52.410;-1.966;2024-01-30T04:37:25;16.60;54.70
61591;DHT22;71994;52.410;-1.966;2024-01-30T04:40:31;16.60;54.70
61591;DHT22;71994;52.410;-1.966;2024-01-30T04:43:40;16.60;54.60
61591;DHT22;71994;52.410;-1.966;2024-01-30T04:46:47;16.60;54.60
61591;DHT22;71994;52.410;-1.966;2024-01-30T04:49:53;16.60;54.60
61591;DHT22;71994;52.410;-1.966;2024-01-30T04:52:59;16.50;54.50
61591;DHT22;71994;52.410;-1.966;2024-01-30T04:56:08;16.60;54.50
61591;DHT22;71994;52.410;-1.966;2024-01-30T04:59:17;16.50;54.40
61591;DHT22;71994;52.410;-1.966;2024-01-30T05:02:24;16.60;54.40
61591;DHT22;71994;52.410;-1.966;2024-01-30T05:05:30;16.50;54.40
61591;DHT22;71994;52.410;-1.966;2024-01-30T05:08:36;16.50;54.20
61591;DHT22;71994;52.410;-1.966;2024-01-30T05:11:42;16.50;54.30
61591;DHT22;71994;52.410;-1.966;2024-01-30T05:14:51;16.50;54.30
61591;DHT22;71994;52.410;-1.966;2024-01-30T05:17:57;16.40;54.30
61591;DHT22;71994;52.410;-1.966;2024-01-30T05:21:05;16.40;54.40
61591;DHT22;71994;52.410;-1.966;2024-01-30T05:24:11;16.40;54.10
61591;DHT22;71994;52.410;-1.966;2024-01-30T05:27:17;16.40;54.20
61591;DHT22;71994;52.410;-1.966;2024-01-30T05:30:26;16.40;54.40
61591;DHT22;71994;52.410;-1.966;2024-01-30T05:33:33;16.30;54.30
61591;DHT22;71994;52.410;-1.966;2024-01-30T05:36:41;16.40;54.20
61591;DHT22;71994;52.410;-1.966;2024-01-30T05:39:48;16.30;54.30
61591;DHT22;71994;52.410;-1.966;2024-01-30T05:42:54;16.30;54.00
61591;DHT22;71994;52.410;-1.966;2024-01-30T05:46:04;16.30;54.10
61591;DHT22;71994;52.410;-1.966;2024-01-30T05:49:10;16.30;54.20
61591;DHT22;71994;52.410;-1.966;2024-01-30T05:52:16;16.30;54.20
61591;DHT22;71994;52.410;-1.966;2024-01-30T05:55:23;16.30;54.10
61591;DHT22;71994;52.410;-1.966;2024-01-30T05:58:29;16.30;54.20
61591;DHT22;71994;52.410;-1.966;2024-01-30T06:01:45;16.30;54.10
61591;DHT22;71994;52.410;-1.966;2024-01-30T06:04:52;16.30;54.00
61591;DHT22;71994;52.410;-1.966;2024-01-30T06:07:58;16.30;53.90
61591;DHT22;71994;52.410;-1.966;2024-01-30T06:11:05;16.30;54.00
61591;DHT22;71994;52.410;-1.966;2024-01-30T06:14:11;16.30;54.00
61591;DHT22;71994;52.410;-1.966;2024-01-30T06:17:20;16.30;53.90
61591;DHT22;71994;52.410;-1.966;2024-01-30T06:20:26;16.30;53.90
61591;DHT22;71994;52.410;-1.966;2024-01-30T06:23:33;16.20;53.80
61591;DHT22;71994;52.410;-1.966;2024-01-30T06:26:40;16.20;53.90
61591;DHT22;71994;52.410;-1.966;2024-01-30T06:29:46;16.20;53.80
61591;DHT22;71994;52.410;-1.966;2024-01-30T06:32:55;16.20;53.80
61591;DHT22;71994;52.410;-1.966;2024-01-30T06:36:04;16.20;53.80
61591;DHT22;71994;52.410;-1.966;2024-01-30T06:39:11;16.10;53.80
61591;DHT22;71994;52.410;-1.966;2024-01-30T06:42:17;16.10;53.80
61591;DHT22;71994;52.410;-1.966;2024-01-30T06:45:23;16.10;53.70
61591;DHT22;71994;52.410;-1.966;2024-01-30T06:48:32;16.10;53.70
61591;DHT22;71994;52.410;-1.966;2024-01-30T06:51:38;16.10;53.70
61591;DHT22;71994;52.410;-1.966;2024-01-30T06:54:45;16.10;53.70
61591;DHT22;71994;52.410;-1.966;2024-01-30T06:57:51;16.10;53.70
61591;DHT22;71994;52.410;-1.966;2024-01-30T07:00:57;16.10;53.60
61591;DHT22;71994;52.410;-1.966;2024-01-30T07:04:06;16.10;53.60
61591;DHT22;71994;52.410;-1.966;2024-01-30T07:07:13;16.10;53.90
61591;DHT22;71994;52.410;-1.966;2024-01-30T07:10:19;16.10;53.70
61591;DHT22;71994;52.410;-1.966;2024-01-30T07:13:25;16.10;53.70
61591;DHT22;71994;52.410;-1.966;2024-01-30T07:16:31;16.10;54.00
61591;DHT22;71994;52.410;-1.966;2024-01-30T07:19:40;16.20;55.50
61591;DHT22;71994;52.410;-1.966;2024-01-30T07:22:47;16.30;55.10
61591;DHT22;71994;52.410;-1.966;2024-01-30T07:25:53;16.40;54.20
61591;DHT22;71994;52.410;-1.966;2024-01-30T07:28:59;16.50;53.90
61591;DHT22;71994;52.410;-1.966;2024-01-30T07:32:06;16.70;53.40
61591;DHT22;71994;52.410;-1.966;2024-01-30T07:35:15;16.80;53.40
61591;DHT22;71994;52.410;-1.966;2024-01-30T07:38:21;17.00;53.20
61591;DHT22;71994;52.410;-1.966;2024-01-30T07:41:28;17.10;53.20
61591;DHT22;71994;52.410;-1.966;2024-01-30T07:44:34;17.30;53.00
61591;DHT22;71994;52.410;-1.966;2024-01-30T07:47:41;17.40;53.30
61591;DHT22;71994;52.410;-1.966;2024-01-30T07:50:50;17.60;52.90
61591;DHT22;71994;52.410;-1.966;2024-01-30T07:53:56;17.60;53.20
61591;DHT22;71994;52.410;-1.966;2024-01-30T07:57:03;17.70;52.80
61591;DHT22;71994;52.410;-1.966;2024-01-30T08:00:10;17.70;53.40
61591;DHT22;71994;52.410;-1.966;2024-01-30T08:03:16;17.80;53.20
61591;DHT22;71994;52.410;-1.966;2024-01-30T08:06:26;17.80;53.40
61591;DHT22;71994;52.410;-1.966;2024-01-30T08:09:32;17.90;53.10
61591;DHT22;71994;52.410;-1.966;2024-01-30T08:12:38;18.00;53.60
61591;DHT22;71994;52.410;-1.966;2024-01-30T08:15:44;18.00;53.40
61591;DHT22;71994;52.410;-1.966;2024-01-30T08:18:51;18.00;53.20
61591;DHT22;71994;52.410;-1.966;2024-01-30T08:22:03;18.00;53.00
61591;DHT22;71994;52.410;-1.966;2024-01-30T08:25:09;18.10;52.80
61591;DHT22;71994;52.410;-1.966;2024-01-30T08:28:22;18.10;53.90
61591;DHT22;71994;52.410;-1.966;2024-01-30T08:31:29;18.00;52.90
61591;DHT22;71994;52.410;-1.966;2024-01-30T08:34:35;18.00;52.50
61591;DHT22;71994;52.410;-1.966;2024-01-30T08:37:44;18.10;52.80
61591;DHT22;71994;52.410;-1.966;2024-01-30T08:40:50;18.00;52.10
61591;DHT22;71994;52.410;-1.966;2024-01-30T08:43:56;17.90;52.50
61591;DHT22;71994;52.410;-1.966;2024-01-30T08:47:03;17.90;52.40
61591;DHT22;71994;52.410;-1.966;2024-01-30T08:50:09;17.80;52.20
61591;DHT22;71994;52.410;-1.966;2024-01-30T08:53:18;17.80;51.90
61591;DHT22;71994;52.410;-1.966;2024-01-30T08:56:25;17.70;51.80
61591;DHT22;71994;52.410;-1.966;2024-01-30T08:59:31;17.60;51.70
61591;DHT22;71994;52.410;-1.966;2024-01-30T09:02:37;17.60;51.70
61591;DHT22;71994;52.410;-1.966;2024-01-30T09:05:43;17.50;51.80
61591;DHT22;71994;52.410;-1.966;2024-01-30T09:08:52;17.50;51.80
61591;DHT22;71994;52.410;-1.966;2024-01-30T09:12:01;17.50;51.80
61591;DHT22;71994;52.410;-1.966;2024-01-30T09:15:10;17.40;51.80
61591;DHT22;71994;52.410;-1.966;2024-01-30T09:18:16;17.40;51.90
61591;DHT22;71994;52.410;-1.966;2024-01-30T09:21:22;17.30;52.00
61591;DHT22;71994;52.410;-1.966;2024-01-30T09:24:32;17.40;52.00
61591;DHT22;71994;52.410;-1.966;2024-01-30T09:27:38;17.30;52.00
61591;DHT22;71994;52.410;-1.966;2024-01-30T09:30:44;17.30;52.20
61591;DHT22;71994;52.410;-1.966;2024-01-30T09:33:50;17.30;52.00
61591;DHT22;71994;52.410;-1.966;2024-01-30T09:36:57;17.20;52.10
61591;DHT22;71994;52.410;-1.966;2024-01-30T09:40:07;17.20;52.30
61591;DHT22;71994;52.410;-1.966;2024-01-30T09:43:17;17.20;52.30
61591;DHT22;71994;52.410;-1.966;2024-01-30T09:46:27;17.20;52.20
61591;DHT22;71994;52.410;-1.966;2024-01-30T09:49:34;17.10;52.10
61591;DHT22;71994;52.410;-1.966;2024-01-30T09:52:40;17.10;52.20
61591;DHT22;71994;52.410;-1.966;2024-01-30T09:55:51;17.10;52.40
61591;DHT22;71994;52.410;-1.966;2024-01-30T09:58:58;17.10;52.30
61591;DHT22;71994;52.410;-1.966;2024-01-30T10:02:04;17.00;52.20
61591;DHT22;71994;52.410;-1.966;2024-01-30T10:05:11;17.00;52.30
61591;DHT22;71994;52.410;-1.966;2024-01-30T10:08:21;17.00;52.50
61591;DHT22;71994;52.410;-1.966;2024-01-30T10:11:30;16.90;52.40
61591;DHT22;71994;52.410;-1.966;2024-01-30T10:14:37;17.00;52.40
61591;DHT22;71994;52.410;-1.966;2024-01-30T10:17:44;16.90;52.30
61591;DHT22;71994;52.410;-1.966;2024-01-30T10:20:51;16.80;52.60
61591;DHT22;71994;52.410;-1.966;2024-01-30T10:23:57;16.80;52.70
61591;DHT22;71994;52.410;-1.966;2024-01-30T10:27:09;16.80;52.60
61591;DHT22;71994;52.410;-1.966;2024-01-30T10:30:15;16.80;52.70
61591;DHT22;71994;52.410;-1.966;2024-01-30T10:33:21;16.80;52.50
61591;DHT22;71994;52.410;-1.966;2024-01-30T10:36:28;16.70;52.50
61591;DHT22;71994;52.410;-1.966;2024-01-30T10:39:38;16.70;52.70
61591;DHT22;71994;52.410;-1.966;2024-01-30T10:42:48;16.70;52.60
61591;DHT22;71994;52.410;-1.966;2024-01-30T10:45:57;16.70;52.60
61591;DHT22;71994;52.410;-1.966;2024-01-30T10:49:09;16.70;52.90
61591;DHT22;71994;52.410;-1.966;2024-01-30T10:52:16;16.70;52.70
61591;DHT22;71994;52.410;-1.966;2024-01-30T10:55:23;16.70;52.80
61591;DHT22;71994;52.410;-1.966;2024-01-30T10:58:34;16.70;53.20
61591;DHT22;71994;52.410;-1.966;2024-01-30T11:01:40;16.70;52.60
61591;DHT22;71994;52.410;-1.966;2024-01-30T11:04:47;16.70;52.50
61591;DHT22;71994;52.410;-1.966;2024-01-30T11:07:53;16.70;52.80
61591;DHT22;71994;52.410;-1.966;2024-01-30T11:11:00;16.70;52.60
61591;DHT22;71994;52.410;-1.966;2024-01-30T11:14:09;16.70;53.00
61591;DHT22;71994;52.410;-1.966;2024-01-30T11:17:15;16.70;52.70
61591;DHT22;71994;52.410;-1.966;2024-01-30T11:20:25;16.70;52.70
61591;DHT22;71994;52.410;-1.966;2024-01-30T11:23:34;16.80;53.60
61591;DHT22;71994;52.410;-1.966;2024-01-30T11:26:42;16.80;54.30
61591;DHT22;71994;52.410;-1.966;2024-01-30T11:29:53;16.90;53.20
61591;DHT22;71994;52.410;-1.966;2024-01-30T11:33:00;17.00;52.70
61591;DHT22;71994;52.410;-1.966;2024-01-30T11:36:08;17.00;52.70
61591;DHT22;71994;52.410;-1.966;2024-01-30T11:39:17;17.10;52.20
61591;DHT22;71994;52.410;-1.966;2024-01-30T11:42:26;17.30;52.00
61591;DHT22;71994;52.410;-1.966;2024-01-30T11:45:36;17.50;51.70
61591;DHT22;71994;52.410;-1.966;2024-01-30T11:48:44;17.60;51.70
61591;DHT22;71994;52.410;-1.966;2024-01-30T11:51:51;17.60;51.90
61591;DHT22;71994;52.410;-1.966;2024-01-30T11:54:58;17.70;52.10
61591;DHT22;71994;52.410;-1.966;2024-01-30T11:58:06;17.70;51.90
61591;DHT22;71994;52.410;-1.966;2024-01-30T12:01:17;17.70;52.40
61591;DHT22;71994;52.410;-1.966;2024-01-30T12:04:24;17.70;52.90
61591;DHT22;71994;52.410;-1.966;2024-01-30T12:07:33;17.70;52.40
61591;DHT22;71994;52.410;-1.966;2024-01-30T12:10:41;17.70;53.00
61591;DHT22;71994;52.410;-1.966;2024-01-30T12:13:47;17.60;52.70
61591;DHT22;71994;52.410;-1.966;2024-01-30T12:16:58;17.60;52.60
61591;DHT22;71994;52.410;-1.966;2024-01-30T12:20:06;17.60;51.60
61591;DHT22;71994;52.410;-1.966;2024-01-30T12:23:12;17.60;51.30
61591;DHT22;71994;52.410;-1.966;2024-01-30T12:26:19;17.60;51.60
61591;DHT22;71994;52.410;-1.966;2024-01-30T12:29:25;17.60;50.90
61591;DHT22;71994;52.410;-1.966;2024-01-30T12:32:34;17.50;50.80
61591;DHT22;71994;52.410;-1.966;2024-01-30T12:35:45;17.50;50.70
61591;DHT22;71994;52.410;-1.966;2024-01-30T12:38:52;17.40;50.90
61591;DHT22;71994;52.410;-1.966;2024-01-30T12:41:58;17.40;51.00
61591;DHT22;71994;52.410;-1.966;2024-01-30T12:45:06;17.30;50.80
61591;DHT22;71994;52.410;-1.966;2024-01-30T12:48:16;17.30;51.20
61591;DHT22;71994;52.410;-1.966;2024-01-30T12:51:22;17.30;51.10
61591;DHT22;71994;52.410;-1.966;2024-01-30T12:54:28;17.20;51.20
61591;DHT22;71994;52.410;-1.966;2024-01-30T12:57:35;17.20;51.60
61591;DHT22;71994;52.410;-1.966;2024-01-30T13:00:42;17.20;51.30
61591;DHT22;71994;52.410;-1.966;2024-01-30T13:03:53;17.20;51.40
61591;DHT22;71994;52.410;-1.966;2024-01-30T13:07:00;17.20;51.60
61591;DHT22;71994;52.410;-1.966;2024-01-30T13:10:07;17.10;51.10
61591;DHT22;71994;52.410;-1.966;2024-01-30T13:13:13;17.10;51.80
61591;DHT22;71994;52.410;-1.966;2024-01-30T13:16:20;17.10;51.60
61591;DHT22;71994;52.410;-1.966;2024-01-30T13:19:29;17.10;51.50
61591;DHT22;71994;52.410;-1.966;2024-01-30T13:22:35;17.10;51.60
61591;DHT22;71994;52.410;-1.966;2024-01-30T13:25:42;17.10;51.90
61591;DHT22;71994;52.410;-1.966;2024-01-30T13:28:48;17.10;51.60
61591;DHT22;71994;52.410;-1.966;2024-01-30T13:31:54;17.00;51.50
61591;DHT22;71994;52.410;-1.966;2024-01-30T13:35:04;17.00;51.70
61591;DHT22;71994;52.410;-1.966;2024-01-30T13:38:10;17.00;51.90
61591;DHT22;71994;52.410;-1.966;2024-01-30T13:41:17;17.00;51.70
61591;DHT22;71994;52.410;-1.966;2024-01-30T13:44:24;17.00;51.90
61591;DHT22;71994;52.410;-1.966;2024-01-30T13:47:30;17.00;52.00
61591;DHT22;71994;52.410;-1.966;2024-01-30T13:50:40;17.00;52.00
61591;DHT22;71994;52.410;-1.966;2024-01-30T13:53:46;16.90;51.70
61591;DHT22;71994;52.410;-1.966;2024-01-30T13:56:53;16.90;51.60
61591;DHT22;71994;52.410;-1.966;2024-01-30T13:59:59;16.90;52.00
61591;DHT22;71994;52.410;-1.966;2024-01-30T14:03:07;16.80;51.60
61591;DHT22;71994;52.410;-1.966;2024-01-30T14:06:16;16.80;52.00
61591;DHT22;71994;52.410;-1.966;2024-01-30T14:09:22;16.80;51.90
61591;DHT22;71994;52.410;-1.966;2024-01-30T14:12:29;16.80;52.70
61591;DHT22;71994;52.410;-1.966;2024-01-30T14:15:35;16.80;53.50
61591;DHT22;71994;52.410;-1.966;2024-01-30T14:18:41;16.90;53.30
61591;DHT22;71994;52.410;-1.966;2024-01-30T14:21:50;16.90;53.70
61591;DHT22;71994;52.410;-1.966;2024-01-30T14:24:57;16.90;53.80
61591;DHT22;71994;52.410;-1.966;2024-01-30T14:28:04;16.90;54.50
61591;DHT22;71994;52.410;-1.966;2024-01-30T14:31:10;16.90;53.80
61591;DHT22;71994;52.410;-1.966;2024-01-30T14:34:16;17.00;53.00
61591;DHT22;71994;52.410;-1.966;2024-01-30T14:37:26;17.00;52.70
61591;DHT22;71994;52.410;-1.966;2024-01-30T14:40:32;17.00;52.90
61591;DHT22;71994;52.410;-1.966;2024-01-30T14:43:39;17.00;53.10
61591;DHT22;71994;52.410;-1.966;2024-01-30T14:46:45;17.10;52.60
61591;DHT22;71994;52.410;-1.966;2024-01-30T14:49:52;17.00;52.20
61591;DHT22;71994;52.410;-1.966;2024-01-30T14:53:01;17.10;52.80
61591;DHT22;71994;52.410;-1.966;2024-01-30T14:56:07;17.10;53.00
61591;DHT22;71994;52.410;-1.966;2024-01-30T14:59:14;17.10;52.90
61591;DHT22;71994;52.410;-1.966;2024-01-30T15:02:20;17.10;53.30
61591;DHT22;71994;52.410;-1.966;2024-01-30T15:05:26;17.10;52.20
61591;DHT22;71994;52.410;-1.966;2024-01-30T15:08:35;17.10;52.90
61591;DHT22;71994;52.410;-1.966;2024-01-30T15:11:41;17.10;52.50
61591;DHT22;71994;52.410;-1.966;2024-01-30T15:14:48;17.10;51.70
61591;DHT22;71994;52.410;-1.966;2024-01-30T15:17:56;17.10;52.50
61591;DHT22;71994;52.410;-1.966;2024-01-30T15:21:02;17.10;51.50
61591;DHT22;71994;52.410;-1.966;2024-01-30T15:24:12;17.10;51.30
61591;DHT22;71994;52.410;-1.966;2024-01-30T15:27:20;17.10;51.30
61591;DHT22;71994;52.410;-1.966;2024-01-30T15:30:26;17.00;51.20
61591;DHT22;71994;52.410;-1.966;2024-01-30T15:33:33;17.00;51.10
61591;DHT22;71994;52.410;-1.966;2024-01-30T15:36:39;17.00;51.50
61591;DHT22;71994;52.410;-1.966;2024-01-30T15:39:48;17.00;51.10
61591;DHT22;71994;52.410;-1.966;2024-01-30T15:42:54;16.90;51.10
61591;DHT22;71994;52.410;-1.966;2024-01-30T15:46:01;16.90;51.30
61591;DHT22;71994;52.410;-1.966;2024-01-30T15:49:07;16.90;51.50
61591;DHT22;71994;52.410;-1.966;2024-01-30T15:52:13;16.80;51.10
61591;DHT22;71994;52.410;-1.966;2024-01-30T15:55:23;16.80;51.40
61591;DHT22;71994;52.410;-1.966;2024-01-30T15:58:29;16.80;51.20
61591;DHT22;71994;52.410;-1.966;2024-01-30T16:01:35;16.80;51.20
61591;DHT22;71994;52.410;-1.966;2024-01-30T16:04:41;16.80;51.60
61591;DHT22;71994;52.410;-1.966;2024-01-30T16:07:48;16.80;51.70
61591;DHT22;71994;52.410;-1.966;2024-01-30T16:10:57;16.80;51.90
61591;DHT22;71994;52.410;-1.966;2024-01-30T16:14:03;16.80;51.70
61591;DHT22;71994;52.410;-1.966;2024-01-30T16:17:09;16.80;53.10
61591;DHT22;71994;52.410;-1.966;2024-01-30T16:20:15;16.80;53.40
61591;DHT22;71994;52.410;-1.966;2024-01-30T16:23:22;16.80;52.40
61591;DHT22;71994;52.410;-1.966;2024-01-30T16:26:31;17.00;51.50
61591;DHT22;71994;52.410;-1.966;2024-01-30T16:29:37;17.10;51.80
61591;DHT22;71994;52.410;-1.966;2024-01-30T16:32:44;17.10;51.60
61591;DHT22;71994;52.410;-1.966;2024-01-30T16:35:50;17.20;51.40
61591;DHT22;71994;52.410;-1.966;2024-01-30T16:38:56;17.30;51.50
61591;DHT22;71994;52.410;-1.966;2024-01-30T16:42:08;17.40;51.60
61591;DHT22;71994;52.410;-1.966;2024-01-30T16:45:15;17.50;51.80
61591;DHT22;71994;52.410;-1.966;2024-01-30T16:48:24;17.50;52.10
61591;DHT22;71994;52.410;-1.966;2024-01-30T16:51:31;17.50;52.10
61591;DHT22;71994;52.410;-1.966;2024-01-30T16:54:38;17.50;52.80
61591;DHT22;71994;52.410;-1.966;2024-01-30T16:57:47;17.50;52.00
61591;DHT22;71994;52.410;-1.966;2024-01-30T17:00:53;17.40;51.00
61591;DHT22;71994;52.410;-1.966;2024-01-30T17:03:59;17.40;50.60
61591;DHT22;71994;52.410;-1.966;2024-01-30T17:07:05;17.40;50.50
61591;DHT22;71994;52.410;-1.966;2024-01-30T17:10:12;17.40;51.50
61591;DHT22;71994;52.410;-1.966;2024-01-30T17:13:22;17.40;51.60
61591;DHT22;71994;52.410;-1.966;2024-01-30T17:16:28;17.40;51.90
61591;DHT22;71994;52.410;-1.966;2024-01-30T17:19:34;17.50;52.20
61591;DHT22;71994;52.410;-1.966;2024-01-30T17:22:41;17.50;51.60
61591;DHT22;71994;52.410;-1.966;2024-01-30T17:25:48;17.60;51.20
61591;DHT22;71994;52.410;-1.966;2024-01-30T17:28:57;17.70;51.00
61591;DHT22;71994;52.410;-1.966;2024-01-30T17:32:04;17.70;51.20
61591;DHT22;71994;52.410;-1.966;2024-01-30T17:35:10;17.80;50.70
61591;DHT22;71994;52.410;-1.966;2024-01-30T17:38:16;17.80;51.10
61591;DHT22;71994;52.410;-1.966;2024-01-30T17:41:22;17.90;50.60
61591;DHT22;71994;52.410;-1.966;2024-01-30T17:44:32;18.00;50.20
61591;DHT22;71994;52.410;-1.966;2024-01-30T17:47:42;18.00;49.90
61591;DHT22;71994;52.410;-1.966;2024-01-30T17:50:49;18.10;49.50
61591;DHT22;71994;52.410;-1.966;2024-01-30T17:53:55;18.20;49.80
61591;DHT22;71994;52.410;-1.966;2024-01-30T17:57:02;18.30;49.90
61591;DHT22;71994;52.410;-1.966;2024-01-30T18:00:13;18.30;50.90
61591;DHT22;71994;52.410;-1.966;2024-01-30T18:03:19;18.40;49.90
61591;DHT22;71994;52.410;-1.966;2024-01-30T18:06:25;18.40;49.90
61591;DHT22;71994;52.410;-1.966;2024-01-30T18:09:32;18.40;51.30
61591;DHT22;71994;52.410;-1.966;2024-01-30T18:12:38;18.50;50.60
61591;DHT22;71994;52.410;-1.966;2024-01-30T18:15:48;18.60;50.40
61591;DHT22;71994;52.410;-1.966;2024-01-30T18:18:54;18.60;50.70
61591;DHT22;71994;52.410;-1.966;2024-01-30T18:22:00;18.60;50.60
61591;DHT22;71994;52.410;-1.966;2024-01-30T18:25:07;18.60;51.00
61591;DHT22;71994;52.410;-1.966;2024-01-30T18:28:14;18.60;50.40
61591;DHT22;71994;52.410;-1.966;2024-01-30T18:31:23;18.60;50.90
61591;DHT22;71994;52.410;-1.966;2024-01-30T18:34:29;18.50;49.00
61591;DHT22;71994;52.410;-1.966;2024-01-30T18:37:36;18.50;48.90
61591;DHT22;71994;52.410;-1.966;2024-01-30T18:40:42;18.40;48.60
61591;DHT22;71994;52.410;-1.966;2024-01-30T18:43:49;18.30;48.30
61591;DHT22;71994;52.410;-1.966;2024-01-30T18:46:58;18.30;48.50
61591;DHT22;71994;52.410;-1.966;2024-01-30T18:50:05;18.10;48.40
61591;DHT22;71994;52.410;-1.966;2024-01-30T18:56:36;18.10;48.80
61591;DHT22;71994;52.410;-1.966;2024-01-30T18:59:42;18.00;48.80
61591;DHT22;71994;52.410;-1.966;2024-01-30T19:02:52;18.00;48.60
61591;DHT22;71994;52.410;-1.966;2024-01-30T19:05:58;17.90;48.70
61591;DHT22;71994;52.410;-1.966;2024-01-30T19:09:05;17.90;49.20
61591;DHT22;71994;52.410;-1.966;2024-01-30T19:12:12;17.80;49.30
61591;DHT22;71994;52.410;-1.966;2024-01-30T19:15:20;17.80;49.40
61591;DHT22;71994;52.410;-1.966;2024-01-30T19:18:30;17.70;49.80
61591;DHT22;71994;52.410;-1.966;2024-01-30T19:21:36;17.70;49.90
61591;DHT22;71994;52.410;-1.966;2024-01-30T19:24:42;17.70;50.90
61591;DHT22;71994;52.410;-1.966;2024-01-30T19:27:48;17.80;51.10